createdAt,value
2022-11-02T00:00:37.477Z,100485.63
2022-11-02T00:03:06.784Z,100475.19
2022-11-02T00:05:36.194Z,100480.06
2022-11-02T00:08:05.800Z,100473.75
2022-11-02T00:10:35.238Z,100434.22
2022-11-02T00:13:06.066Z,100474.53
2022-11-02T00:15:37.269Z,100466.06
2022-11-02T00:18:09.751Z,100467.88
2022-11-02T00:20:39.659Z,100445.69
2022-11-02T00:23:10.911Z,100466.00
2022-11-02T00:25:42.468Z,100464.28
2022-11-02T00:28:12.792Z,100464.78
2022-11-02T00:30:41.934Z,100440.69
2022-11-02T00:33:11.093Z,100456.56
2022-11-02T00:35:40.780Z,100443.69
2022-11-02T00:38:09.875Z,100462.31
2022-11-02T00:40:38.814Z,100464.84
2022-11-02T00:43:08.386Z,100445.81
2022-11-02T00:45:41.302Z,100455.75
2022-11-02T00:48:10.003Z,100466.06
2022-11-02T00:50:39.085Z,100462.50
2022-11-02T00:53:07.937Z,100457.53
2022-11-02T00:55:37.020Z,100412.44
2022-11-02T00:58:06.428Z,100447.47
2022-11-02T01:00:35.438Z,100438.69
2022-11-02T01:03:06.456Z,100443.59
2022-11-02T01:05:35.459Z,100410.06
2022-11-02T01:08:05.121Z,100420.19
2022-11-02T01:10:34.978Z,100460.09
2022-11-02T01:13:03.881Z,100460.38
2022-11-02T01:15:33.737Z,100421.41
2022-11-02T01:18:03.074Z,100447.34
2022-11-02T01:20:33.762Z,100452.56
2022-11-02T01:23:02.726Z,100452.22
2022-11-02T01:25:31.586Z,100459.38
2022-11-02T01:28:00.516Z,100460.00
2022-11-02T01:30:29.443Z,100440.66
2022-11-02T01:32:58.357Z,100425.44
2022-11-02T01:35:28.611Z,100388.56
2022-11-02T01:37:58.808Z,100449.06
2022-11-02T01:40:27.662Z,100429.81
2022-11-02T01:42:57.342Z,100439.44
2022-11-02T01:45:26.215Z,100407.25
2022-11-02T01:47:56.077Z,100402.63
2022-11-02T01:50:28.649Z,100428.28
2022-11-02T01:53:01.073Z,100435.06
2022-11-02T01:55:33.962Z,100403.66
2022-11-02T01:58:07.807Z,100427.75
2022-11-02T02:00:38.816Z,100385.34
2022-11-02T02:03:10.709Z,100402.81
2022-11-02T02:05:43.722Z,100405.41
2022-11-02T02:08:18.780Z,100429.88
2022-11-02T02:10:47.591Z,100430.56
2022-11-02T02:13:19.442Z,100384.72
2022-11-02T02:15:57.051Z,100388.84
2022-11-02T02:18:34.164Z,100416.19
2022-11-02T02:21:21.264Z,100410.38
2022-11-02T02:24:22.058Z,100405.38
2022-11-02T02:27:10.819Z,100398.09
2022-11-02T02:29:53.653Z,100319.38
2022-11-02T02:32:29.951Z,100402.34
2022-11-02T02:35:08.828Z,100404.00
2022-11-02T02:37:45.214Z,100338.09
2022-11-02T02:40:18.787Z,100403.31
2022-11-02T02:42:49.824Z,100404.47
2022-11-02T02:45:27.321Z,100393.38
2022-11-02T02:48:02.358Z,100406.97
2022-11-02T02:50:38.737Z,100407.41
2022-11-02T02:53:09.661Z,100323.72
2022-11-02T02:55:45.046Z,100396.09
2022-11-02T02:58:19.840Z,100396.72
2022-11-02T03:00:53.267Z,100389.09
2022-11-02T03:03:27.375Z,100379.53
2022-11-02T03:06:06.072Z,100404.97
2022-11-02T03:08:39.709Z,100388.16
2022-11-02T03:11:14.632Z,100407.88
2022-11-02T03:14:00.173Z,100358.00
2022-11-02T03:16:44.004Z,100404.63
2022-11-02T03:19:24.857Z,100406.91
2022-11-02T03:22:02.121Z,100404.31
2022-11-02T03:24:37.346Z,100366.19
2022-11-02T03:27:17.473Z,100349.97
2022-11-02T03:29:54.777Z,100387.63
2022-11-02T03:32:32.922Z,100405.94
2022-11-02T03:35:06.907Z,100406.03
2022-11-02T03:37:40.591Z,100405.38
2022-11-02T03:40:17.442Z,100392.03
2022-11-02T03:42:48.380Z,100376.59
2022-11-02T03:45:20.439Z,100389.34
2022-11-02T03:47:56.044Z,100392.84
2022-11-02T03:50:27.828Z,100397.03
2022-11-02T03:53:00.377Z,100371.25
2022-11-02T03:55:34.593Z,100350.47
2022-11-02T03:58:04.463Z,100394.00
2022-11-02T04:00:36.216Z,100329.84
2022-11-02T04:03:13.447Z,100371.41
2022-11-02T04:05:46.264Z,100367.81
2022-11-02T04:08:35.465Z,100343.44
2022-11-02T04:11:25.788Z,100375.47
2022-11-02T04:14:16.398Z,100356.44
2022-11-02T04:17:11.057Z,100325.94
2022-11-02T04:19:45.445Z,100379.38
2022-11-02T04:22:35.953Z,100310.41
2022-11-02T04:25:19.507Z,100353.59
2022-11-02T04:27:57.613Z,100367.25
2022-11-02T04:30:32.282Z,100350.53
2022-11-02T04:33:20.389Z,100343.38
2022-11-02T04:36:00.863Z,100334.25
2022-11-02T04:38:41.810Z,100345.25
2022-11-02T04:41:45.568Z,100342.31
2022-11-02T04:44:18.581Z,100307.63
2022-11-02T04:46:58.814Z,100343.09
2022-11-02T04:49:31.776Z,100291.09
2022-11-02T04:52:02.840Z,100345.69
2022-11-02T04:54:34.866Z,100348.88
2022-11-02T04:57:06.768Z,100345.84
2022-11-02T04:59:35.956Z,100308.28
2022-11-02T05:02:05.488Z,100339.88
2022-11-02T05:04:35.613Z,100328.66
2022-11-02T05:07:07.803Z,100341.56
2022-11-02T05:09:38.745Z,100334.38
2022-11-02T05:12:08.303Z,100327.63
2022-11-02T05:14:37.398Z,100134.13
2022-11-02T05:17:06.489Z,100327.84
2022-11-02T05:19:37.691Z,100241.81
2022-11-02T05:22:09.735Z,100284.63
2022-11-02T05:24:38.615Z,100335.63
2022-11-02T05:27:11.849Z,100334.84
2022-11-02T05:29:41.636Z,100331.56
2022-11-02T05:32:11.175Z,100332.25
2022-11-02T05:34:42.102Z,100333.13
2022-11-02T05:37:14.483Z,100341.84
2022-11-02T05:39:47.860Z,100288.75
2022-11-02T05:42:20.759Z,100335.84
2022-11-02T05:44:50.131Z,100338.94
2022-11-02T05:47:19.233Z,100341.28
2022-11-02T05:49:49.989Z,100349.75
2022-11-02T05:52:23.117Z,100346.94
2022-11-02T05:54:54.704Z,100352.44
2022-11-02T05:57:23.797Z,100342.69
2022-11-02T05:59:52.788Z,100054.50
2022-11-02T06:02:23.405Z,100323.50
2022-11-02T06:04:54.492Z,100354.75
2022-11-02T06:07:27.770Z,100330.13
2022-11-02T06:09:57.020Z,100363.38
2022-11-02T06:12:25.902Z,100364.56
2022-11-02T06:14:55.241Z,100333.50
2022-11-02T06:17:24.439Z,100365.03
2022-11-02T06:19:53.348Z,100367.50
2022-11-02T06:22:22.703Z,100296.34
2022-11-02T06:24:53.438Z,100367.59
2022-11-02T06:27:22.670Z,100346.19
2022-11-02T06:29:52.108Z,100331.81
2022-11-02T06:32:21.098Z,100366.69
2022-11-02T06:34:50.237Z,100279.25
2022-11-02T06:37:19.163Z,100369.88
2022-11-02T06:39:48.268Z,100327.69
2022-11-02T06:42:18.493Z,100351.50
2022-11-02T06:44:47.482Z,100375.19
2022-11-02T06:47:16.577Z,100357.97
2022-11-02T06:49:45.675Z,100375.13
2022-11-02T06:52:15.058Z,100376.06
2022-11-02T06:54:44.116Z,100320.13
2022-11-02T06:57:13.045Z,100350.81
2022-11-02T06:59:43.214Z,100375.44
2022-11-02T07:02:12.293Z,100380.63
2022-11-02T07:04:44.264Z,100332.66
2022-11-02T07:07:13.311Z,100351.00
2022-11-02T07:09:42.547Z,100364.44
2022-11-02T07:12:11.632Z,100375.56
2022-11-02T07:14:40.907Z,100376.34
2022-11-02T07:17:11.648Z,100372.44
2022-11-02T07:19:40.564Z,100390.31
2022-11-02T07:22:09.517Z,100369.34
2022-11-02T07:24:40.730Z,100382.22
2022-11-02T07:27:09.688Z,100386.09
2022-11-02T07:29:38.567Z,100380.94
2022-11-02T07:32:09.088Z,100368.88
2022-11-02T07:34:39.409Z,100366.25
2022-11-02T07:37:08.293Z,100364.34
2022-11-02T07:39:37.239Z,100341.72
2022-11-02T07:42:07.261Z,100370.09
2022-11-02T07:44:41.977Z,100368.47
2022-11-02T07:47:11.361Z,100365.75
2022-11-02T07:49:42.314Z,100373.16
2022-11-02T07:52:11.957Z,100292.06
2022-11-02T07:54:44.569Z,100328.38
2022-11-02T07:57:14.107Z,100364.88
2022-11-02T07:59:43.791Z,100356.34
2022-11-02T08:02:14.865Z,100343.28
2022-11-02T08:04:46.503Z,100321.69
2022-11-02T08:07:16.310Z,100328.91
2022-11-02T08:09:46.013Z,100370.38
2022-11-02T08:12:15.521Z,100369.72
2022-11-02T08:14:44.720Z,100362.47
2022-11-02T08:17:13.974Z,100367.88
2022-11-02T08:19:43.337Z,100364.59
2022-11-02T08:22:13.948Z,100328.16
2022-11-02T08:24:43.333Z,100355.63
2022-11-02T08:27:12.611Z,100302.19
2022-11-02T08:29:44.377Z,100342.69
2022-11-02T08:32:14.402Z,100351.38
2022-11-02T08:34:45.670Z,100358.03
2022-11-02T08:37:16.285Z,100352.88
2022-11-02T08:39:45.315Z,100351.84
2022-11-02T08:42:16.576Z,100359.63
2022-11-02T08:44:45.664Z,100312.59
2022-11-02T08:47:15.984Z,100339.50
2022-11-02T08:49:47.095Z,100349.13
2022-11-02T08:52:17.718Z,100333.97
2022-11-02T08:54:47.028Z,100288.56
2022-11-02T08:57:16.463Z,100303.50
2022-11-02T08:59:45.637Z,100226.13
2022-11-02T09:02:14.812Z,100339.75
2022-11-02T09:04:44.228Z,100332.25
2022-11-02T09:07:17.136Z,100336.50
2022-11-02T09:09:46.293Z,100338.22
2022-11-02T09:12:15.967Z,100314.94
2022-11-02T09:14:45.351Z,100333.84
2022-11-02T09:17:14.587Z,100328.25
2022-11-02T09:19:44.026Z,100311.53
2022-11-02T09:22:13.230Z,100330.69
2022-11-02T09:24:43.593Z,100337.13
2022-11-02T09:27:12.538Z,100310.44
2022-11-02T09:29:41.552Z,100314.41
2022-11-02T09:32:11.041Z,100328.22
2022-11-02T09:34:40.366Z,100328.44
2022-11-02T09:37:09.337Z,100326.06
2022-11-02T09:39:38.745Z,100324.94
2022-11-02T09:42:20.385Z,100327.84
2022-11-02T09:44:52.516Z,100319.50
2022-11-02T09:50:18.927Z,100303.97
2022-11-02T09:52:58.811Z,100321.19
2022-11-02T09:55:31.907Z,100321.69
2022-11-02T09:58:07.486Z,100332.38
2022-11-02T10:00:42.032Z,100273.31
2022-11-02T10:03:21.920Z,100292.63
2022-11-02T10:05:58.424Z,100323.38
2022-11-02T10:08:39.546Z,100327.66
2022-11-02T10:11:20.542Z,100257.28
2022-11-02T10:13:57.059Z,100304.69
2022-11-02T10:16:38.310Z,100316.41
2022-11-02T10:19:14.872Z,100329.78
2022-11-02T10:21:48.273Z,100329.94
2022-11-02T10:24:25.825Z,100333.84
2022-11-02T10:26:58.322Z,100254.75
2022-11-02T10:29:41.442Z,100298.19
2022-11-02T10:32:12.710Z,100292.59
2022-11-02T10:34:42.942Z,100243.28
2022-11-02T10:38:14.998Z,100319.56
2022-11-02T10:41:08.799Z,100066.63
2022-11-02T10:43:54.362Z,100304.03
2022-11-02T10:46:42.527Z,100315.28
2022-11-02T10:49:18.278Z,100214.72
2022-11-02T10:51:47.579Z,100338.31
2022-11-02T10:54:21.663Z,100320.94
2022-11-02T10:57:09.211Z,100277.66
2022-11-02T10:59:39.201Z,100242.41
2022-11-02T11:02:17.099Z,100314.69
2022-11-02T11:04:47.433Z,100164.53
2022-11-02T11:07:30.436Z,100181.66
2022-11-02T11:10:00.047Z,100188.75
2022-11-02T11:12:34.716Z,100171.81
2022-11-02T11:20:49.698Z,100303.16
2022-11-02T11:23:21.740Z,100316.88
2022-11-02T11:26:00.200Z,100245.56
2022-11-02T11:28:32.084Z,100289.47
2022-11-02T11:31:09.045Z,100265.16
2022-11-02T11:33:49.639Z,100295.53
2022-11-02T11:36:28.403Z,100277.56
2022-11-02T11:39:01.463Z,100274.31
2022-11-02T11:41:32.866Z,100301.91
2022-11-02T11:44:03.733Z,100303.66
2022-11-02T11:46:44.031Z,100304.38
2022-11-02T11:49:36.033Z,100053.34
2022-11-02T11:52:20.541Z,100297.22
2022-11-02T11:55:00.969Z,100291.34
2022-11-02T11:57:33.003Z,100297.91
2022-11-02T12:00:05.275Z,100298.78
2022-11-02T12:02:43.843Z,100290.00
2022-11-02T12:05:16.707Z,100244.34
2022-11-02T12:08:16.219Z,100269.19
2022-11-02T12:11:03.836Z,100311.50
2022-11-02T12:13:51.956Z,100310.13
2022-11-02T12:16:31.167Z,100299.41
2022-11-02T12:19:23.749Z,100275.88
2022-11-02T12:22:04.074Z,100276.88
2022-11-02T12:25:05.558Z,100314.16
2022-11-02T12:27:43.677Z,100282.59
2022-11-02T12:30:16.644Z,100312.94
2022-11-02T12:32:59.885Z,100314.94
2022-11-02T12:36:05.341Z,100322.25
2022-11-02T12:38:52.943Z,100278.25
2022-11-02T12:42:09.993Z,100153.75
2022-11-02T12:44:50.205Z,100196.31
2022-11-02T12:47:30.174Z,100111.47
2022-11-02T12:50:10.087Z,100333.41
2022-11-02T12:52:53.657Z,100129.91
2022-11-02T12:55:38.177Z,100209.94
2022-11-02T12:58:19.580Z,100303.59
2022-11-02T13:00:57.028Z,100212.22
2022-11-02T13:03:37.309Z,100364.91
2022-11-02T13:06:14.531Z,100270.09
2022-11-02T13:08:50.293Z,100336.97
2022-11-02T13:11:26.168Z,100289.56
2022-11-02T13:13:58.970Z,100320.00
2022-11-02T13:16:40.862Z,100336.09
2022-11-02T13:19:19.487Z,100344.53
2022-11-02T13:21:54.110Z,100315.16
2022-11-02T13:24:30.662Z,100340.78
2022-11-02T13:29:59.287Z,100331.34
2022-11-02T13:32:34.362Z,100348.19
2022-11-02T13:35:14.169Z,100341.59
2022-11-02T13:37:48.104Z,100334.59
2022-11-02T13:40:23.069Z,100350.72
2022-11-02T13:43:30.189Z,100326.44
2022-11-02T13:46:13.075Z,100329.16
2022-11-02T13:48:52.632Z,100350.75
2022-11-02T13:51:29.132Z,100343.50
2022-11-02T13:54:04.968Z,100353.72
2022-11-02T13:56:37.676Z,100346.44
2022-11-02T13:59:09.311Z,100307.31
2022-11-02T14:01:42.607Z,100359.31
2022-11-02T14:04:14.741Z,100356.16
2022-11-02T14:06:51.214Z,100354.69
2022-11-02T14:09:32.110Z,100357.25
2022-11-02T14:12:27.374Z,100305.72
2022-11-02T14:16:03.726Z,100312.75
2022-11-02T14:18:34.664Z,100343.78
2022-11-02T14:21:36.693Z,100349.38
2022-11-02T14:24:48.383Z,100350.06
2022-11-02T14:27:31.150Z,100328.16
2022-11-02T14:30:00.682Z,100363.56
2022-11-02T14:32:41.735Z,100301.13
2022-11-02T14:35:46.985Z,100357.47
2022-11-02T14:38:40.003Z,100357.53
2022-11-02T14:41:32.199Z,100346.03
2022-11-02T14:44:23.889Z,100352.66
2022-11-02T14:46:57.677Z,100334.50
2022-11-02T14:49:29.806Z,100351.63
2022-11-02T14:52:04.676Z,100371.78
2022-11-02T14:54:37.733Z,100377.84
2022-11-02T14:57:16.495Z,100374.00
2022-11-02T14:59:49.864Z,100274.34
2022-11-02T15:02:24.818Z,100379.06
2022-11-02T15:04:56.330Z,100374.44
2022-11-02T15:07:34.872Z,100383.69
2022-11-02T15:10:07.207Z,100352.13
2022-11-02T15:12:41.280Z,100392.97
2022-11-02T15:15:32.970Z,100391.25
2022-11-02T15:18:33.706Z,100378.31
2022-11-02T15:21:25.524Z,100397.03
2022-11-02T15:24:15.505Z,100328.19
2022-11-02T15:26:51.014Z,100381.31
2022-11-02T15:29:36.556Z,100401.06
2022-11-02T15:32:10.047Z,100405.34
2022-11-02T15:34:43.830Z,100383.22
2022-11-02T15:37:18.428Z,100382.47
2022-11-02T15:39:53.548Z,100411.50
2022-11-02T15:42:33.532Z,100413.63
2022-11-02T15:45:49.430Z,100415.34
2022-11-02T15:48:37.006Z,100417.59
2022-11-02T15:51:20.661Z,100402.88
2022-11-02T15:54:13.558Z,100400.75
2022-11-02T15:57:02.758Z,100390.59
2022-11-02T15:59:55.210Z,100430.44
2022-11-02T16:02:27.977Z,100442.63
2022-11-02T16:05:00.194Z,100398.66
2022-11-02T16:07:38.287Z,100430.66
2022-11-02T16:10:25.663Z,100447.75
2022-11-02T16:13:00.444Z,100435.81
2022-11-02T16:15:30.580Z,100437.69
2022-11-02T16:17:59.751Z,100451.72
2022-11-02T16:20:31.052Z,100459.91
2022-11-02T16:23:02.092Z,100455.53
2022-11-02T16:25:39.911Z,100458.00
2022-11-02T16:28:20.396Z,100423.88
2022-11-02T16:31:12.737Z,100458.03
2022-11-02T16:33:49.573Z,100444.06
2022-11-02T16:36:21.190Z,100458.72
2022-11-02T16:38:59.591Z,100449.72
2022-11-02T16:41:31.281Z,100433.03
2022-11-02T16:44:03.808Z,100465.25
2022-11-02T16:46:43.351Z,100468.75
2022-11-02T16:49:18.721Z,100463.03
2022-11-02T16:51:53.178Z,100468.38
2022-11-02T16:54:41.292Z,100430.28
2022-11-02T16:57:19.788Z,100422.63
2022-11-02T16:59:54.810Z,100475.63
2022-11-02T17:02:36.212Z,100400.50
2022-11-02T17:05:07.761Z,100469.66
2022-11-02T17:07:42.413Z,100473.91
2022-11-02T17:10:22.224Z,100474.13
2022-11-02T17:12:51.586Z,100450.38
2022-11-02T17:15:25.180Z,100474.31
2022-11-02T17:18:16.720Z,100474.53
2022-11-02T17:20:46.207Z,100444.72
2022-11-02T17:23:33.894Z,100463.47
2022-11-02T17:26:42.165Z,100475.16
2022-11-02T17:29:32.289Z,100482.41
2022-11-02T17:32:05.225Z,100480.25
2022-11-02T17:34:35.781Z,100483.44
2022-11-02T17:37:06.791Z,100483.69
2022-11-02T17:39:36.244Z,100415.59
2022-11-02T17:42:23.137Z,100478.09
2022-11-02T17:44:52.650Z,100463.47
2022-11-02T17:47:23.468Z,100480.47
2022-11-02T17:49:52.684Z,100430.28
2022-11-02T17:52:21.833Z,100474.94
2022-11-02T17:54:51.285Z,100415.31
2022-11-02T17:57:21.170Z,100481.78
2022-11-02T17:59:51.746Z,100473.31
2022-11-02T18:02:22.472Z,100478.38
2022-11-02T18:04:51.709Z,100445.72
2022-11-02T18:07:21.026Z,100480.88
2022-11-02T18:09:49.953Z,100487.16
2022-11-02T18:12:21.975Z,100404.41
2022-11-02T18:14:51.766Z,100367.84
2022-11-02T18:17:27.149Z,100470.09
2022-11-02T18:19:58.045Z,100483.94
2022-11-02T18:22:28.023Z,100477.34
2022-11-02T18:25:04.779Z,100491.00
2022-11-02T18:27:33.864Z,100479.81
2022-11-02T18:30:03.241Z,100410.03
2022-11-02T18:32:56.190Z,100426.94
2022-11-02T18:35:26.561Z,100393.03
2022-11-02T18:38:01.715Z,100292.56
2022-11-02T18:40:42.968Z,100379.53
2022-11-02T18:43:16.750Z,100504.22
2022-11-02T18:45:45.965Z,100503.75
2022-11-02T18:48:17.145Z,100503.00
2022-11-02T18:50:46.580Z,100506.13
2022-11-02T18:56:31.957Z,100391.88
2022-11-02T18:59:01.459Z,100319.56
2022-11-02T19:01:37.979Z,100512.97
2022-11-02T19:04:16.948Z,100290.09
2022-11-02T19:07:13.838Z,100407.41
2022-11-02T19:09:46.896Z,100501.16
2022-11-02T19:12:20.310Z,100530.09
2022-11-02T19:14:51.674Z,100510.53
2022-11-02T19:17:20.793Z,100535.53
2022-11-02T19:19:54.967Z,100540.03
2022-11-02T19:22:28.861Z,100536.63
2022-11-02T19:24:58.225Z,100492.94
2022-11-02T19:27:27.756Z,100535.53
2022-11-02T19:29:56.937Z,100513.59
2022-11-02T19:32:29.165Z,100539.47
2022-11-02T19:35:00.647Z,100535.44
2022-11-02T19:37:34.302Z,100542.97
2022-11-02T19:40:04.426Z,100515.72
2022-11-02T19:42:33.661Z,100546.19
2022-11-02T19:45:04.405Z,100547.34
2022-11-02T19:47:34.068Z,100530.44
2022-11-02T19:50:04.465Z,100540.00
2022-11-02T19:52:41.495Z,100548.31
2022-11-02T19:55:12.980Z,100488.03
2022-11-02T19:57:43.346Z,100554.88
2022-11-02T20:00:14.853Z,100515.44
2022-11-02T20:02:48.838Z,100568.16
2022-11-02T20:05:22.079Z,100565.81
2022-11-02T20:07:55.244Z,100542.78
2022-11-02T20:10:32.731Z,100503.50
2022-11-02T20:13:07.363Z,100562.16
2022-11-02T20:15:45.013Z,100560.78
2022-11-02T20:18:19.448Z,100479.34
2022-11-02T20:20:52.578Z,100537.38
2022-11-02T20:23:45.845Z,100517.63
2022-11-02T20:26:17.325Z,100558.16
2022-11-02T20:28:53.155Z,100559.44
2022-11-02T20:31:24.130Z,100550.38
2022-11-02T20:33:57.116Z,100523.16
2022-11-02T20:36:30.549Z,100568.03
2022-11-02T20:39:04.674Z,100572.41
2022-11-02T20:41:36.079Z,100566.69
2022-11-02T20:44:07.227Z,100574.97
2022-11-02T20:46:41.451Z,100462.69
2022-11-02T20:49:22.324Z,100569.28
2022-11-02T20:52:03.836Z,100550.09
2022-11-02T20:54:33.289Z,100555.00
2022-11-02T20:57:08.695Z,100581.81
2022-11-02T20:59:38.159Z,100569.28
2022-11-02T21:02:08.486Z,100572.69
2022-11-02T21:04:59.612Z,100571.28
2022-11-02T21:07:30.138Z,100573.97
2022-11-02T21:10:01.961Z,100568.66
2022-11-02T21:12:50.550Z,100571.13
2022-11-02T21:15:21.859Z,100580.13
2022-11-02T21:17:53.409Z,100521.13
2022-11-02T21:20:34.092Z,100531.03
2022-11-02T21:23:06.475Z,100556.53
2022-11-02T21:25:36.569Z,100555.03
2022-11-02T21:28:06.101Z,100519.78
2022-11-02T21:30:37.157Z,100488.19
2022-11-02T21:33:15.835Z,100555.69
2022-11-02T21:35:52.633Z,100501.56
2022-11-02T21:38:26.982Z,100365.28
2022-11-02T21:41:00.138Z,100331.59
2022-11-02T21:43:29.385Z,100480.94
2022-11-02T21:45:59.910Z,100544.09
2022-11-02T21:48:39.228Z,100542.75
2022-11-02T21:51:12.178Z,100537.31
2022-11-02T21:53:44.032Z,100542.75
2022-11-02T21:56:15.888Z,100502.03
2022-11-02T21:58:46.511Z,100527.63
2022-11-02T22:01:38.506Z,100533.56
2022-11-02T22:04:08.311Z,100526.19
2022-11-02T22:06:37.969Z,100558.88
2022-11-02T22:09:09.775Z,100559.94
2022-11-02T22:11:38.723Z,100536.06
2022-11-02T22:14:08.122Z,100510.91
2022-11-02T22:16:38.901Z,100546.91
2022-11-02T22:19:09.565Z,100529.00
2022-11-02T22:21:40.991Z,100563.09
2022-11-02T22:24:13.461Z,100531.47
2022-11-02T22:26:42.525Z,100563.13
2022-11-02T22:29:12.256Z,100567.06
2022-11-02T22:31:42.002Z,100550.53
2022-11-02T22:34:13.343Z,100561.53
2022-11-02T22:36:44.545Z,100548.06
2022-11-02T22:39:15.928Z,100563.66
2022-11-02T22:41:46.681Z,100519.53
2022-11-02T22:44:17.514Z,100572.09
2022-11-02T22:46:48.926Z,100554.97
2022-11-02T22:49:19.949Z,100527.97
2022-11-02T22:51:51.351Z,100507.41
2022-11-02T22:54:21.826Z,100491.88
2022-11-02T22:56:50.923Z,100559.31
2022-11-02T22:59:20.951Z,100555.47
2022-11-02T23:01:51.410Z,100538.56
2022-11-02T23:04:20.746Z,100515.78
2022-11-02T23:06:49.633Z,100540.72
2022-11-02T23:09:18.546Z,100524.97
2022-11-02T23:11:47.797Z,100560.53
2022-11-02T23:14:21.265Z,100565.22
2022-11-02T23:16:50.172Z,100564.19
2022-11-02T23:19:30.993Z,100490.97
2022-11-02T23:22:19.659Z,100548.50
2022-11-02T23:25:07.998Z,100559.41
2022-11-02T23:27:55.673Z,100536.34
2022-11-02T23:30:42.317Z,100557.34
2022-11-02T23:33:11.627Z,100489.16
2022-11-02T23:35:58.258Z,100563.63
2022-11-02T23:38:48.448Z,100551.03
2022-11-02T23:41:18.244Z,100567.03
2022-11-02T23:43:48.915Z,100502.28
2022-11-02T23:46:18.913Z,100551.66
2022-11-02T23:48:51.121Z,100564.84
2022-11-02T23:51:40.537Z,100509.16
2022-11-02T23:54:27.284Z,100542.50
2022-11-02T23:56:56.681Z,100575.00
2022-11-02T23:59:27.362Z,100572.84
